This is the latest recevied weather packets stored in our database for station/object N5SRF. If no packets are shown the sender has not sent any weather packets the latest 10 day(s).
| Time | Temp. | Humidity | Pressure | Rain* | Wind** | Luminosity | Snow |
|---|---|---|---|---|---|---|---|
| 1777668858 | 14.44° C | 99% | 1015.8 hPa | 4.83 mm | - | 55 W/m² | - |
| 1777668555 | 14.44° C | 99% | 1015.7 hPa | 3.05 mm | - | 44 W/m² | - |
| 1777668251 | 13.89° C | 99% | 1016 hPa | 4.83 mm | - | 49 W/m² | - |
| 1777667947 | 14.44° C | 99% | 1015.6 hPa | 6.6 mm | - | 46 W/m² | - |
| 1777667644 | 14.44° C | 99% | 1016 hPa | 6.1 mm | - | 41 W/m² | - |
| 1777667342 | 14.44° C | 99% | 1015.9 hPa | 7.11 mm | - | 43 W/m² | - |
| 1777667038 | 14.44° C | 99% | 1016.1 hPa | 6.1 mm | - | 37 W/m² | - |
| 1777666735 | 14.44° C | 99% | 1016 hPa | 3.05 mm | - | 29 W/m² | - |
| 1777666432 | 14.44° C | 99% | 1016 hPa | 1.78 mm | - | 23 W/m² | - |
| 1777666128 | 14.44° C | 99% | 1015.4 hPa | 1.78 mm | - | 36 W/m² | - |
| 1777665825 | 14.44° C | 99% | 1015.2 hPa | 0 mm | - | 33 W/m² | - |
| 1777665524 | 14.44° C | 99% | 1015.5 hPa | 0 mm | - | 34 W/m² | - |
| 1777665218 | 14.44° C | 99% | 1015.7 hPa | 0 mm | - | 31 W/m² | - |
| 1777664910 | 14.44° C | 99% | 1015.6 hPa | 0 mm | - | 34 W/m² | - |
| 1777664606 | 14.44° C | 99% | 1015.1 hPa | 0 mm | - | 44 W/m² | - |
| 1777664302 | 14.44° C | 99% | 1014.4 hPa | 0 mm | - | 52 W/m² | - |
| 1777664001 | 14.44° C | 99% | 1014.8 hPa | 0 mm | - | 41 W/m² | - |
| 1777663698 | 14.44° C | 99% | 1015.3 hPa | 0 mm | - | 35 W/m² | - |
| 1777663395 | 14.44° C | 99% | 1015.1 hPa | 0 mm | - | 38 W/m² | - |
| 1777663092 | 14.44° C | 99% | 1014.7 hPa | 0 mm | - | 47 W/m² | - |
| 1777662789 | 14.44° C | 99% | 1014.2 hPa | 0 mm | - | 65 W/m² | - |
| 1777662485 | 14.44° C | 99% | 1014 hPa | 0 mm | - | 77 W/m² | - |
| 1777662182 | 14.44° C | 99% | 1013.7 hPa | 0 mm | - | 99 W/m² | - |
| 1777661877 | 14.44° C | 99% | 1013.9 hPa | 0 mm | - | 113 W/m² | - |
| 1777661573 | 14.44° C | 99% | 1013.9 hPa | 0 mm | - | 105 W/m² | - |
* Rain latest hour (hover to see other rain measurements)
** Current wind speed in m/s (hover to see current wind gust speed)